This is the latest recevied weather packets stored in our database for station/object K5MJM. If no packets are shown the sender has not sent any weather packets the latest 10 day(s).
| Time | Temp. | Humidity | Pressure | Rain* | Wind** | Luminosity | Snow |
|---|---|---|---|---|---|---|---|
| 1777554079 | 9.44° C | 73% | 1019.7 hPa | 0 mm | - | - | - |
| 1777552279 | 8.89° C | 74% | 1019 hPa | 0 mm | - | - | - |
| 1777547479 | 8.33° C | 74% | 1018.9 hPa | 0 mm | - | - | - |
| 1777541479 | 8.89° C | 73% | 1019.5 hPa | 0 mm | - | - | - |
| 1777537279 | 8.89° C | 72% | 1018.5 hPa | 0 mm | - | - | - |
| 1777533078 | 9.44° C | 71% | 1019.3 hPa | 0 mm | - | - | - |
| 1777530679 | 10° C | 70% | 1019.5 hPa | 0 mm | - | - | - |
| 1777529479 | 10° C | 69% | 1019.3 hPa | 0 mm | - | - | - |
| 1777528279 | 10.56° C | 68% | 1019.3 hPa | 0 mm | - | - | - |
| 1777521678 | 12.22° C | 63% | 1019.5 hPa | 0 mm | - | - | - |
| 1777515078 | 14.44° C | 54% | 1018.6 hPa | 0 mm | - | - | - |
| 1777507877 | 17.78° C | 47% | 1016.9 hPa | 0 mm | - | - | - |
| 1777504298 | 18.89° C | 45% | 1016.8 hPa | 0 mm | - | - | - |
| 1777503677 | 19.44° C | 44% | 1016.9 hPa | 0 mm | - | - | - |
| 1777502479 | 19.44° C | 43% | 1016.7 hPa | 0 mm | - | - | - |
| 1777497678 | 19.44° C | 43% | 1017.4 hPa | 0 mm | - | - | - |
| 1777494677 | 19.44° C | 45% | 1018.2 hPa | 0 mm | - | - | - |
| 1777494078 | 18.89° C | 46% | 1018.3 hPa | 0 mm | - | - | - |
| 1777491080 | 19.44° C | 44% | 1018.7 hPa | 0 mm | - | - | - |
| 1777490498 | 19.44° C | 46% | 1018.7 hPa | 0 mm | - | - | - |
| 1777489898 | 19.44° C | 46% | 1019 hPa | 0 mm | - | - | - |
| 1777483277 | 16.67° C | 51% | 1020.7 hPa | 0 mm | - | - | - |
| 1777473077 | 11.67° C | 65% | 1020.9 hPa | 0 mm | - | - | - |
| 1777471298 | 10.56° C | 67% | 1021.1 hPa | 0 mm | - | - | - |
| 1777470700 | 10.56° C | 67% | 1021.1 hPa | 0 mm | - | - | - |
* Rain latest hour (hover to see other rain measurements)
** Current wind speed in m/s (hover to see current wind gust speed)